Airfield :
LOGIN :

Register | Disclaimer

   EN    FR    IT 

 










Legend :    VFR   Marginal VFR   IFR   Intensive IFR   Very Intensive IFR
Visi :
Ceiling :
>= 8 km
>= 3000ft
5 to 8 km
1000 to 3000 ft
1500m to 5 km
500 to 1000 ft
800 to 1500m
200 to 500 ft
< 800m
< 200 ft
Symbols :   Thunderstorms  Fog  Heavy snow  Heavy precipitations  Wind > 20 kt
SIGMETs :     Misc.  Thunderstorms  Icing  Turbulence  Mountain Waves  Volcanic Ashes






- Airport Elevation : 3 ft
- IATA code : DHR


EHKD - Den Helder De Kooy

CURRENT METAR :
  • 181855Z AUTO 03008KT 360V070 9999 OVC140 16/14 Q1014 BLU NOSIG

EXPIRED METARs :
  • 181825Z AUTO 03009KT 360V070 9999 OVC130 17/14 Q1014 BLU NOSIG
  • 181755Z AUTO 02008KT 350V060 9999 OVC130 17/14 Q1014 BLU NOSIG
  • 181725Z AUTO 03008KT 350V050 9999 OVC140 17/14 Q1014 BLU NOSIG
  • 181655Z AUTO 02009KT 9999 FEW019 BKN061 BKN066 17/14 Q1014 BLU NOSIG
  • 181639Z AUTO 03008KT 350V070 9999 FEW013 OVC015 18/15 Q1013 WHT NOSIG
  • 181630Z AUTO 03008KT 350V080 9999 SCT013 SCT016 BKN019 18/15 Q1013 GRN NOSIG
  • 181625Z AUTO 04006KT 360V080 9999 FEW015 BKN023 OVC130 18/14 Q1013 WHT NOSIG
  • 181555Z AUTO 05004KT 9999 OVC130 18/11 Q1013 BLU NOSIG
  • 181525Z AUTO 05005KT 9999 OVC170 18/12 Q1013 BLU NOSIG
  • 181455Z AUTO 06004KT 360V090 9999 OVC140 19/11 Q1013 BLU NOSIG
  • 181425Z AUTO 05004KT 020V080 9999 OVC140 19/11 Q1013 BLU NOSIG

TAF TAF EHKD
Valid from the 18 at 17:00 until the 19 at 05:00 UTC


181604Z 1817/1905 05007KT CAVOK
PROB30 1820/1824 BKN007



MET'MAP, your aeronautical weather chart ! - Copyright ORBIFLY December 2007 - Disclaimer

ORBIFLY MET'MAP TEAM :

Programming & Development : Alexandra Zaïnal
Original concept : Baudouin d'Aumeries
Technical & hardware support : Manuel Goepfert
Assistance : Marc-Olivier Méhu




SOURCES & CREDITS :

   NOAA